createdAt,value
2019-04-22T00:00:32.803Z,41.13
2019-04-22T00:03:01.554Z,41.73
2019-04-22T00:05:42.900Z,43.77
2019-04-22T00:08:16.789Z,42.87
2019-04-22T00:10:50.254Z,42.17
2019-04-22T00:13:19.985Z,43.20
2019-04-22T00:15:36.739Z,43.23
2019-04-22T00:18:13.406Z,40.27
2019-04-22T00:20:42.291Z,47.90
2019-04-22T00:23:04.111Z,39.37
2019-04-22T00:25:34.840Z,42.07
2019-04-22T00:28:08.524Z,44.03
2019-04-22T00:30:25.549Z,40.63
2019-04-22T00:33:03.206Z,40.37
2019-04-22T00:35:29.310Z,43.20
2019-04-22T00:38:03.486Z,44.03
2019-04-22T00:40:30.183Z,39.13
2019-04-22T00:42:56.560Z,41.53
2019-04-22T00:45:31.064Z,39.83
2019-04-22T00:47:46.169Z,38.57
2019-04-22T00:50:18.875Z,42.10
2019-04-22T00:52:49.411Z,37.07
2019-04-22T00:57:42.490Z,40.23
2019-04-22T01:00:11.985Z,36.00
2019-04-22T01:02:41.519Z,37.20
2019-04-22T01:05:09.320Z,45.83
2019-04-22T01:07:30.819Z,38.53
2019-04-22T01:10:09.228Z,40.20
2019-04-22T01:12:34.336Z,38.40
2019-04-22T01:15:01.025Z,33.87
2019-04-22T01:17:34.362Z,34.57
2019-04-22T01:20:12.503Z,34.67
2019-04-22T01:22:22.393Z,34.87
2019-04-22T01:24:50.109Z,40.50
2019-04-22T01:27:11.498Z,36.70
2019-04-22T01:29:39.850Z,35.57
2019-04-22T01:31:54.478Z,36.00
2019-04-22T01:34:36.185Z,39.00
2019-04-22T01:37:11.732Z,39.37
2019-04-22T01:39:43.705Z,36.17
2019-04-22T01:42:28.616Z,37.03
2019-04-22T01:44:38.431Z,36.17
2019-04-22T01:49:33.629Z,34.60
2019-04-22T01:52:15.906Z,34.77
2019-04-22T01:54:35.773Z,37.33
2019-04-22T01:57:02.141Z,41.90
2019-04-22T01:59:19.839Z,35.83
2019-04-22T02:01:55.102Z,36.73
2019-04-22T02:04:26.890Z,31.90
2019-04-22T02:09:24.099Z,34.73
2019-04-22T02:14:19.615Z,32.93
2019-04-22T02:16:49.815Z,35.63
2019-04-22T02:19:18.447Z,35.90
2019-04-22T02:21:35.714Z,34.13
2019-04-22T02:24:15.944Z,33.70
2019-04-22T02:26:40.260Z,32.37
2019-04-22T02:29:03.455Z,35.27
2019-04-22T02:36:41.411Z,34.33
2019-04-22T02:49:04.094Z,35.43
2019-04-22T02:56:27.298Z,33.10
2019-04-22T02:58:58.382Z,36.53
2019-04-22T03:01:24.807Z,36.67
2019-04-22T03:06:24.115Z,35.43
2019-04-22T03:08:39.697Z,35.00
2019-04-22T03:11:12.428Z,36.23
2019-04-22T03:13:47.181Z,35.60
2019-04-22T03:16:07.919Z,35.97
2019-04-22T03:18:38.464Z,33.43
2019-04-22T03:21:07.895Z,31.57
2019-04-22T03:23:36.517Z,34.13
2019-04-22T03:28:32.795Z,36.40
2019-04-22T03:33:36.155Z,33.00
2019-04-22T03:36:02.602Z,35.33
2019-04-22T03:38:25.462Z,38.67
2019-04-22T03:43:35.131Z,37.10
2019-04-22T03:45:32.209Z,36.97
2019-04-22T03:48:07.779Z,35.80
2019-04-22T03:50:42.494Z,38.57
2019-04-22T03:53:09.854Z,38.60
2019-04-22T03:57:57.340Z,35.47
2019-04-22T04:15:28.447Z,42.47
2019-04-22T04:17:51.563Z,38.63
2019-04-22T04:25:27.299Z,42.00
2019-04-22T04:30:18.897Z,41.30
2019-04-22T04:35:35.050Z,41.67
2019-04-22T04:37:50.131Z,41.00
2019-04-22T04:40:18.347Z,41.67
2019-04-22T04:42:42.336Z,42.37
2019-04-22T04:47:43.952Z,42.17
2019-04-22T04:55:01.643Z,43.63
2019-04-22T04:57:37.205Z,48.03
2019-04-22T05:00:32.384Z,41.30
2019-04-22T05:02:19.911Z,40.43
2019-04-22T05:04:59.545Z,49.80
2019-04-22T05:07:18.687Z,40.87
2019-04-22T05:09:36.004Z,42.17
2019-04-22T05:12:24.644Z,44.50
2019-04-22T05:14:32.292Z,41.37
2019-04-22T05:17:14.311Z,41.90
2019-04-22T05:21:58.227Z,42.97
2019-04-22T05:27:02.099Z,41.87
2019-04-22T05:29:34.680Z,45.23
2019-04-22T05:31:52.204Z,41.43
2019-04-22T05:34:21.480Z,48.53
2019-04-22T05:36:48.453Z,45.97
2019-04-22T05:39:11.127Z,46.90
2019-04-22T05:41:44.558Z,40.97
2019-04-22T05:44:08.408Z,44.57
2019-04-22T05:46:34.796Z,46.80
2019-04-22T05:49:07.089Z,43.87
2019-04-22T05:51:37.065Z,45.93
2019-04-22T05:54:01.337Z,45.77
2019-04-22T05:56:34.215Z,44.37
2019-04-22T05:58:58.851Z,44.03
2019-04-22T06:03:59.207Z,46.50
2019-04-22T06:06:17.978Z,44.53
2019-04-22T06:08:51.037Z,43.63
2019-04-22T06:11:22.951Z,48.03
2019-04-22T06:13:45.038Z,48.97
2019-04-22T06:16:12.974Z,44.93
2019-04-22T06:18:42.010Z,45.40
2019-04-22T06:21:11.527Z,43.33
2019-04-22T06:23:44.068Z,45.00
2019-04-22T06:26:16.145Z,44.67
2019-04-22T06:28:40.672Z,52.03
2019-04-22T06:31:06.916Z,43.00
2019-04-22T06:33:34.496Z,46.73
2019-04-22T06:40:58.403Z,43.13
2019-04-22T06:43:23.597Z,42.47
2019-04-22T06:45:43.596Z,47.03
2019-04-22T06:48:19.160Z,46.50
2019-04-22T06:50:51.020Z,49.53
2019-04-22T06:53:29.880Z,46.40
2019-04-22T06:55:41.321Z,46.90
2019-04-22T06:58:10.879Z,44.67
2019-04-22T07:00:36.703Z,42.60
2019-04-22T07:05:43.741Z,42.63
2019-04-22T07:08:04.360Z,44.83
2019-04-22T07:12:58.404Z,41.73
2019-04-22T07:15:44.119Z,42.60
2019-04-22T07:17:58.203Z,48.57
2019-04-22T07:20:25.593Z,44.83
2019-04-22T07:22:51.492Z,41.83
2019-04-22T07:25:17.780Z,45.90
2019-04-22T07:27:46.069Z,37.90
2019-04-22T07:30:21.912Z,44.33
2019-04-22T07:33:04.517Z,41.07
2019-04-22T07:35:19.396Z,44.93
2019-04-22T07:40:02.211Z,39.37
2019-04-22T07:42:36.826Z,45.47
2019-04-22T07:45:08.613Z,42.43
2019-04-22T07:47:35.904Z,42.20
2019-04-22T07:49:58.975Z,40.23
2019-04-22T07:52:31.891Z,44.00
2019-04-22T07:54:57.930Z,34.83
2019-04-22T07:57:27.760Z,39.27
2019-04-22T07:59:58.070Z,38.20
2019-04-22T08:02:23.629Z,41.87
2019-04-22T08:04:57.960Z,42.00
2019-04-22T08:07:17.762Z,42.23
2019-04-22T08:09:53.912Z,43.57
2019-04-22T08:12:02.640Z,38.17
2019-04-22T08:14:42.281Z,38.63
2019-04-22T08:17:33.009Z,34.07
2019-04-22T08:19:37.324Z,39.53
2019-04-22T08:22:05.967Z,43.67
2019-04-22T08:24:35.612Z,37.67
2019-04-22T08:27:02.665Z,40.40
2019-04-22T08:31:54.815Z,33.17
2019-04-22T08:34:38.732Z,32.83
2019-04-22T08:37:12.222Z,33.97
2019-04-22T08:39:18.864Z,36.50
2019-04-22T08:41:39.928Z,36.40
2019-04-22T08:44:29.342Z,42.77
2019-04-22T08:49:10.239Z,39.83
2019-04-22T08:51:40.228Z,48.47
2019-04-22T08:56:43.652Z,47.73
2019-04-22T08:59:09.467Z,43.63
2019-04-22T09:01:44.392Z,40.87
2019-04-22T09:04:02.195Z,37.97
2019-04-22T09:06:47.980Z,41.27
2019-04-22T09:09:02.037Z,34.30
2019-04-22T09:11:26.932Z,29.53
2019-04-22T09:13:57.166Z,32.63
2019-04-22T09:16:27.796Z,31.57
2019-04-22T09:18:48.167Z,27.10
2019-04-22T09:21:31.619Z,25.40
2019-04-22T09:26:18.453Z,25.70
2019-04-22T09:28:44.563Z,22.20
2019-04-22T09:31:11.640Z,23.80
2019-04-22T09:33:36.872Z,21.73
2019-04-22T09:38:37.512Z,24.03
2019-04-22T09:41:00.005Z,22.10
2019-04-22T09:43:37.059Z,29.23
2019-04-22T09:45:57.505Z,24.07
2019-04-22T09:48:30.393Z,24.53
2019-04-22T09:50:52.493Z,23.30
2019-04-22T09:53:22.455Z,25.67
2019-04-22T09:55:50.006Z,21.37
2019-04-22T09:58:16.303Z,23.90
2019-04-22T10:00:52.844Z,25.53
2019-04-22T10:03:36.787Z,30.57
